sensor_id;sensor_type;location;lat;lon;timestamp;P1;durP1;ratioP1;P2;durP2;ratioP2
64716;SDS011;51146;50.274;19.000;2022-09-09T00:01:43;10.70;;;7.95;;
64716;SDS011;51146;50.274;19.000;2022-09-09T00:04:30;10.68;;;8.13;;
64716;SDS011;51146;50.274;19.000;2022-09-09T00:15:40;11.10;;;8.60;;
64716;SDS011;51146;50.274;19.000;2022-09-09T00:21:05;11.50;;;9.82;;
64716;SDS011;51146;50.274;19.000;2022-09-09T00:23:46;13.45;;;10.70;;
64716;SDS011;51146;50.274;19.000;2022-09-09T00:26:28;13.75;;;11.27;;
64716;SDS011;51146;50.274;19.000;2022-09-09T00:29:36;15.63;;;11.95;;
64716;SDS011;51146;50.274;19.000;2022-09-09T00:32:49;15.20;;;12.32;;
64716;SDS011;51146;50.274;19.000;2022-09-09T00:35:27;17.73;;;12.43;;
64716;SDS011;51146;50.274;19.000;2022-09-09T00:37:56;15.07;;;12.13;;
64716;SDS011;51146;50.274;19.000;2022-09-09T00:41:04;16.58;;;13.05;;
64716;SDS011;51146;50.274;19.000;2022-09-09T00:51:18;18.08;;;13.52;;
64716;SDS011;51146;50.274;19.000;2022-09-09T00:54:21;18.40;;;13.73;;
64716;SDS011;51146;50.274;19.000;2022-09-09T00:59:48;19.42;;;14.73;;
64716;SDS011;51146;50.274;19.000;2022-09-09T01:02:21;19.45;;;14.60;;
64716;SDS011;51146;50.274;19.000;2022-09-09T01:04:54;21.58;;;15.98;;
64716;SDS011;51146;50.274;19.000;2022-09-09T01:07:32;22.33;;;15.23;;
64716;SDS011;51146;50.274;19.000;2022-09-09T01:09:59;22.75;;;16.58;;
64716;SDS011;51146;50.274;19.000;2022-09-09T01:12:34;22.58;;;16.42;;
64716;SDS011;51146;50.274;19.000;2022-09-09T01:18:00;24.48;;;17.27;;
64716;SDS011;51146;50.274;19.000;2022-09-09T01:23:39;28.42;;;18.15;;
64716;SDS011;51146;50.274;19.000;2022-09-09T01:28:52;26.42;;;16.95;;
64716;SDS011;51146;50.274;19.000;2022-09-09T01:31:21;22.85;;;16.98;;
64716;SDS011;51146;50.274;19.000;2022-09-09T01:33:53;22.67;;;17.65;;
64716;SDS011;51146;50.274;19.000;2022-09-09T01:36:34;28.27;;;18.10;;
64716;SDS011;51146;50.274;19.000;2022-09-09T01:39:09;20.92;;;15.85;;
64716;SDS011;51146;50.274;19.000;2022-09-09T01:41:37;23.15;;;17.20;;
64716;SDS011;51146;50.274;19.000;2022-09-09T01:44:04;24.63;;;16.80;;
64716;SDS011;51146;50.274;19.000;2022-09-09T01:46:33;25.35;;;18.77;;
64716;SDS011;51146;50.274;19.000;2022-09-09T01:49:00;23.60;;;17.67;;
64716;SDS011;51146;50.274;19.000;2022-09-09T01:51:30;22.90;;;17.10;;
64716;SDS011;51146;50.274;19.000;2022-09-09T01:53:57;23.88;;;17.85;;
64716;SDS011;51146;50.274;19.000;2022-09-09T01:56:31;27.45;;;18.95;;
64716;SDS011;51146;50.274;19.000;2022-09-09T02:01:57;20.98;;;16.88;;
64716;SDS011;51146;50.274;19.000;2022-09-09T02:04:49;26.13;;;17.67;;
64716;SDS011;51146;50.274;19.000;2022-09-09T02:07:27;24.30;;;17.77;;
64716;SDS011;51146;50.274;19.000;2022-09-09T02:10:10;21.23;;;16.67;;
64716;SDS011;51146;50.274;19.000;2022-09-09T02:12:42;22.98;;;16.48;;
64716;SDS011;51146;50.274;19.000;2022-09-09T02:15:17;19.75;;;16.48;;
64716;SDS011;51146;50.274;19.000;2022-09-09T02:18:01;21.92;;;16.33;;
64716;SDS011;51146;50.274;19.000;2022-09-09T02:20:35;21.15;;;15.80;;
64716;SDS011;51146;50.274;19.000;2022-09-09T02:25:32;20.27;;;15.27;;
64716;SDS011;51146;50.274;19.000;2022-09-09T02:28:02;19.98;;;14.52;;
64716;SDS011;51146;50.274;19.000;2022-09-09T02:30:32;20.40;;;16.20;;
64716;SDS011;51146;50.274;19.000;2022-09-09T02:33:01;19.20;;;15.38;;
64716;SDS011;51146;50.274;19.000;2022-09-09T02:35:32;20.48;;;16.40;;
64716;SDS011;51146;50.274;19.000;2022-09-09T02:38:04;17.38;;;14.98;;
64716;SDS011;51146;50.274;19.000;2022-09-09T02:40:35;18.27;;;15.43;;
64716;SDS011;51146;50.274;19.000;2022-09-09T02:43:02;19.10;;;15.73;;
64716;SDS011;51146;50.274;19.000;2022-09-09T02:45:35;18.52;;;14.95;;
64716;SDS011;51146;50.274;19.000;2022-09-09T02:53:21;21.58;;;16.02;;
64716;SDS011;51146;50.274;19.000;2022-09-09T02:56:14;21.73;;;16.50;;
64716;SDS011;51146;50.274;19.000;2022-09-09T02:58:47;20.30;;;15.75;;
64716;SDS011;51146;50.274;19.000;2022-09-09T03:01:14;21.67;;;16.50;;
64716;SDS011;51146;50.274;19.000;2022-09-09T03:03:41;23.65;;;16.35;;
64716;SDS011;51146;50.274;19.000;2022-09-09T03:06:08;19.38;;;15.65;;
64716;SDS011;51146;50.274;19.000;2022-09-09T03:08:36;26.38;;;16.63;;
64716;SDS011;51146;50.274;19.000;2022-09-09T03:11:05;22.85;;;16.92;;
64716;SDS011;51146;50.274;19.000;2022-09-09T03:13:32;25.00;;;16.83;;
64716;SDS011;51146;50.274;19.000;2022-09-09T03:16:00;26.20;;;16.85;;
64716;SDS011;51146;50.274;19.000;2022-09-09T03:18:27;19.67;;;15.13;;
64716;SDS011;51146;50.274;19.000;2022-09-09T03:20:54;23.23;;;16.60;;
64716;SDS011;51146;50.274;19.000;2022-09-09T03:23:21;18.75;;;15.32;;
64716;SDS011;51146;50.274;19.000;2022-09-09T03:25:48;20.45;;;16.85;;
64716;SDS011;51146;50.274;19.000;2022-09-09T03:28:16;18.30;;;15.00;;
64716;SDS011;51146;50.274;19.000;2022-09-09T03:30:42;20.48;;;15.80;;
64716;SDS011;51146;50.274;19.000;2022-09-09T03:33:09;19.77;;;15.80;;
64716;SDS011;51146;50.274;19.000;2022-09-09T03:35:36;19.13;;;15.57;;
64716;SDS011;51146;50.274;19.000;2022-09-09T03:38:02;17.58;;;14.50;;
64716;SDS011;51146;50.274;19.000;2022-09-09T03:40:29;18.80;;;15.73;;
64716;SDS011;51146;50.274;19.000;2022-09-09T03:42:57;20.50;;;15.68;;
64716;SDS011;51146;50.274;19.000;2022-09-09T03:45:23;21.55;;;17.50;;
64716;SDS011;51146;50.274;19.000;2022-09-09T03:47:50;19.00;;;16.15;;
64716;SDS011;51146;50.274;19.000;2022-09-09T03:50:17;19.52;;;15.75;;
64716;SDS011;51146;50.274;19.000;2022-09-09T03:52:46;20.17;;;15.50;;
64716;SDS011;51146;50.274;19.000;2022-09-09T03:55:13;18.77;;;15.98;;
64716;SDS011;51146;50.274;19.000;2022-09-09T03:57:39;21.98;;;15.85;;
64716;SDS011;51146;50.274;19.000;2022-09-09T04:00:06;18.90;;;15.52;;
64716;SDS011;51146;50.274;19.000;2022-09-09T04:02:34;19.85;;;15.57;;
64716;SDS011;51146;50.274;19.000;2022-09-09T04:05:00;20.73;;;15.60;;
64716;SDS011;51146;50.274;19.000;2022-09-09T04:07:27;21.98;;;17.15;;
64716;SDS011;51146;50.274;19.000;2022-09-09T04:09:54;20.30;;;15.98;;
64716;SDS011;51146;50.274;19.000;2022-09-09T04:12:21;21.63;;;15.65;;
64716;SDS011;51146;50.274;19.000;2022-09-09T04:14:48;22.77;;;15.68;;
64716;SDS011;51146;50.274;19.000;2022-09-09T04:17:15;20.77;;;16.10;;
64716;SDS011;51146;50.274;19.000;2022-09-09T04:19:42;23.40;;;17.15;;
64716;SDS011;51146;50.274;19.000;2022-09-09T04:22:08;22.73;;;17.20;;
64716;SDS011;51146;50.274;19.000;2022-09-09T04:24:35;20.90;;;17.05;;
64716;SDS011;51146;50.274;19.000;2022-09-09T04:27:02;21.92;;;17.80;;
64716;SDS011;51146;50.274;19.000;2022-09-09T04:29:29;19.60;;;15.98;;
64716;SDS011;51146;50.274;19.000;2022-09-09T04:31:56;22.83;;;17.63;;
64716;SDS011;51146;50.274;19.000;2022-09-09T04:34:23;23.05;;;16.92;;
64716;SDS011;51146;50.274;19.000;2022-09-09T04:36:50;24.50;;;18.15;;
64716;SDS011;51146;50.274;19.000;2022-09-09T04:39:18;23.52;;;18.05;;
64716;SDS011;51146;50.274;19.000;2022-09-09T04:41:45;21.65;;;17.52;;
64716;SDS011;51146;50.274;19.000;2022-09-09T04:44:13;20.73;;;16.80;;
64716;SDS011;51146;50.274;19.000;2022-09-09T04:46:40;23.65;;;16.13;;
64716;SDS011;51146;50.274;19.000;2022-09-09T04:49:07;19.23;;;16.75;;
64716;SDS011;51146;50.274;19.000;2022-09-09T04:51:40;20.70;;;17.25;;
64716;SDS011;51146;50.274;19.000;2022-09-09T04:54:06;20.08;;;16.45;;
64716;SDS011;51146;50.274;19.000;2022-09-09T04:56:33;24.25;;;18.55;;
64716;SDS011;51146;50.274;19.000;2022-09-09T04:59:00;24.20;;;17.30;;
64716;SDS011;51146;50.274;19.000;2022-09-09T05:01:29;24.70;;;17.17;;
64716;SDS011;51146;50.274;19.000;2022-09-09T05:03:55;24.80;;;18.05;;
64716;SDS011;51146;50.274;19.000;2022-09-09T05:06:22;24.70;;;18.55;;
64716;SDS011;51146;50.274;19.000;2022-09-09T05:08:50;21.88;;;17.40;;
64716;SDS011;51146;50.274;19.000;2022-09-09T05:11:21;23.63;;;18.35;;
64716;SDS011;51146;50.274;19.000;2022-09-09T05:13:51;20.50;;;17.20;;
64716;SDS011;51146;50.274;19.000;2022-09-09T05:16:18;28.38;;;18.70;;
64716;SDS011;51146;50.274;19.000;2022-09-09T05:18:46;23.63;;;16.83;;
64716;SDS011;51146;50.274;19.000;2022-09-09T05:21:14;22.02;;;16.23;;
64716;SDS011;51146;50.274;19.000;2022-09-09T05:23:42;21.75;;;17.15;;
64716;SDS011;51146;50.274;19.000;2022-09-09T05:26:11;22.27;;;16.27;;
64716;SDS011;51146;50.274;19.000;2022-09-09T05:28:43;22.13;;;17.63;;
64716;SDS011;51146;50.274;19.000;2022-09-09T05:31:12;23.30;;;16.38;;
64716;SDS011;51146;50.274;19.000;2022-09-09T05:33:43;23.15;;;17.48;;
64716;SDS011;51146;50.274;19.000;2022-09-09T05:36:13;21.20;;;16.38;;
64716;SDS011;51146;50.274;19.000;2022-09-09T05:38:43;21.90;;;16.60;;
64716;SDS011;51146;50.274;19.000;2022-09-09T05:41:10;21.03;;;16.13;;
64716;SDS011;51146;50.274;19.000;2022-09-09T05:43:38;22.63;;;17.02;;
64716;SDS011;51146;50.274;19.000;2022-09-09T05:46:05;19.83;;;15.60;;
64716;SDS011;51146;50.274;19.000;2022-09-09T05:48:33;18.10;;;16.08;;
64716;SDS011;51146;50.274;19.000;2022-09-09T05:51:02;18.55;;;13.88;;
64716;SDS011;51146;50.274;19.000;2022-09-09T05:53:29;17.67;;;14.63;;
64716;SDS011;51146;50.274;19.000;2022-09-09T05:56:05;20.20;;;14.43;;
64716;SDS011;51146;50.274;19.000;2022-09-09T05:58:37;16.92;;;13.57;;
64716;SDS011;51146;50.274;19.000;2022-09-09T06:01:08;17.85;;;14.02;;
64716;SDS011;51146;50.274;19.000;2022-09-09T06:03:55;18.98;;;14.63;;
64716;SDS011;51146;50.274;19.000;2022-09-09T06:06:24;15.77;;;13.25;;
64716;SDS011;51146;50.274;19.000;2022-09-09T06:08:53;17.40;;;14.15;;
64716;SDS011;51146;50.274;19.000;2022-09-09T06:11:26;19.25;;;15.85;;
64716;SDS011;51146;50.274;19.000;2022-09-09T06:13:54;16.88;;;13.93;;
64716;SDS011;51146;50.274;19.000;2022-09-09T06:16:22;16.55;;;13.13;;
64716;SDS011;51146;50.274;19.000;2022-09-09T06:18:54;17.95;;;12.18;;
64716;SDS011;51146;50.274;19.000;2022-09-09T06:21:29;13.52;;;12.23;;
64716;SDS011;51146;50.274;19.000;2022-09-09T06:23:59;14.48;;;12.60;;
64716;SDS011;51146;50.274;19.000;2022-09-09T06:28:55;12.70;;;10.80;;
64716;SDS011;51146;50.274;19.000;2022-09-09T06:31:25;22.98;;;19.55;;
64716;SDS011;51146;50.274;19.000;2022-09-09T06:33:57;30.27;;;26.90;;
64716;SDS011;51146;50.274;19.000;2022-09-09T06:36:26;28.38;;;25.35;;
64716;SDS011;51146;50.274;19.000;2022-09-09T06:38:57;24.20;;;20.45;;
64716;SDS011;51146;50.274;19.000;2022-09-09T06:41:26;26.85;;;22.73;;
64716;SDS011;51146;50.274;19.000;2022-09-09T06:46:28;13.30;;;11.90;;
64716;SDS011;51146;50.274;19.000;2022-09-09T06:48:57;15.00;;;12.35;;
64716;SDS011;51146;50.274;19.000;2022-09-09T06:51:26;17.25;;;15.45;;
64716;SDS011;51146;50.274;19.000;2022-09-09T06:53:55;14.82;;;12.77;;
64716;SDS011;51146;50.274;19.000;2022-09-09T06:56:28;20.30;;;16.58;;
64716;SDS011;51146;50.274;19.000;2022-09-09T06:58:57;11.57;;;10.30;;
64716;SDS011;51146;50.274;19.000;2022-09-09T07:01:26;9.63;;;7.83;;
64716;SDS011;51146;50.274;19.000;2022-09-09T07:03:55;10.60;;;7.53;;
64716;SDS011;51146;50.274;19.000;2022-09-09T07:06:24;13.90;;;7.82;;
64716;SDS011;51146;50.274;19.000;2022-09-09T07:08:57;10.73;;;7.40;;
64716;SDS011;51146;50.274;19.000;2022-09-09T07:11:26;15.15;;;6.60;;
64716;SDS011;51146;50.274;19.000;2022-09-09T07:13:56;11.45;;;5.38;;
64716;SDS011;51146;50.274;19.000;2022-09-09T07:16:24;5.70;;;5.10;;
64716;SDS011;51146;50.274;19.000;2022-09-09T07:18:53;7.60;;;5.05;;
64716;SDS011;51146;50.274;19.000;2022-09-09T07:21:28;5.93;;;5.32;;
64716;SDS011;51146;50.274;19.000;2022-09-09T07:23:56;7.38;;;5.00;;
64716;SDS011;51146;50.274;19.000;2022-09-09T07:26:24;9.60;;;5.20;;
64716;SDS011;51146;50.274;19.000;2022-09-09T07:28:52;5.90;;;5.37;;
64716;SDS011;51146;50.274;19.000;2022-09-09T07:31:23;7.97;;;6.15;;
64716;SDS011;51146;50.274;19.000;2022-09-09T07:33:52;6.30;;;5.50;;
64716;SDS011;51146;50.274;19.000;2022-09-09T07:36:20;7.97;;;5.95;;
64716;SDS011;51146;50.274;19.000;2022-09-09T07:38:50;5.70;;;5.05;;
64716;SDS011;51146;50.274;19.000;2022-09-09T07:41:20;5.03;;;4.50;;
64716;SDS011;51146;50.274;19.000;2022-09-09T07:43:48;7.38;;;5.50;;
64716;SDS011;51146;50.274;19.000;2022-09-09T07:46:17;6.68;;;5.20;;
64716;SDS011;51146;50.274;19.000;2022-09-09T07:48:46;6.88;;;5.38;;
64716;SDS011;51146;50.274;19.000;2022-09-09T07:51:21;9.50;;;5.07;;
64716;SDS011;51146;50.274;19.000;2022-09-09T07:53:57;5.95;;;5.38;;
64716;SDS011;51146;50.274;19.000;2022-09-09T07:56:28;7.82;;;5.00;;
64716;SDS011;51146;50.274;19.000;2022-09-09T07:58:59;16.98;;;5.13;;
64716;SDS011;51146;50.274;19.000;2022-09-09T08:01:28;8.85;;;4.80;;
64716;SDS011;51146;50.274;19.000;2022-09-09T08:03:59;8.90;;;4.35;;
64716;SDS011;51146;50.274;19.000;2022-09-09T08:06:31;14.43;;;4.80;;
64716;SDS011;51146;50.274;19.000;2022-09-09T08:08:59;6.68;;;4.25;;
64716;SDS011;51146;50.274;19.000;2022-09-09T08:11:27;7.07;;;3.72;;
64716;SDS011;51146;50.274;19.000;2022-09-09T08:14:00;5.43;;;3.97;;
64716;SDS011;51146;50.274;19.000;2022-09-09T08:16:30;5.40;;;3.67;;
64716;SDS011;51146;50.274;19.000;2022-09-09T08:18:59;8.90;;;3.88;;
64716;SDS011;51146;50.274;19.000;2022-09-09T08:21:27;3.88;;;3.08;;
64716;SDS011;51146;50.274;19.000;2022-09-09T08:23:56;6.32;;;3.60;;
64716;SDS011;51146;50.274;19.000;2022-09-09T08:26:25;8.23;;;3.70;;
64716;SDS011;51146;50.274;19.000;2022-09-09T08:28:54;3.88;;;2.72;;
64716;SDS011;51146;50.274;19.000;2022-09-09T08:33:51;7.60;;;3.70;;
64716;SDS011;51146;50.274;19.000;2022-09-09T08:36:22;4.97;;;3.33;;
64716;SDS011;51146;50.274;19.000;2022-09-09T08:38:53;5.63;;;3.50;;
64716;SDS011;51146;50.274;19.000;2022-09-09T08:52:19;7.63;;;3.25;;
64716;SDS011;51146;50.274;19.000;2022-09-09T08:54:50;11.13;;;3.50;;
64716;SDS011;51146;50.274;19.000;2022-09-09T08:57:20;7.43;;;3.50;;
64716;SDS011;51146;50.274;19.000;2022-09-09T08:59:53;10.48;;;3.60;;
64716;SDS011;51146;50.274;19.000;2022-09-09T09:05:46;4.70;;;3.05;;
64716;SDS011;51146;50.274;19.000;2022-09-09T09:08:20;4.40;;;2.63;;
64716;SDS011;51146;50.274;19.000;2022-09-09T09:10:56;4.13;;;2.35;;
64716;SDS011;51146;50.274;19.000;2022-09-09T09:13:32;4.50;;;2.53;;
64716;SDS011;51146;50.274;19.000;2022-09-09T09:16:14;3.65;;;2.70;;
64716;SDS011;51146;50.274;19.000;2022-09-09T09:18:50;4.47;;;3.42;;
64716;SDS011;51146;50.274;19.000;2022-09-09T09:21:20;2.53;;;2.20;;
64716;SDS011;51146;50.274;19.000;2022-09-09T09:23:58;4.88;;;2.50;;
64716;SDS011;51146;50.274;19.000;2022-09-09T09:26:44;3.13;;;2.40;;
64716;SDS011;51146;50.274;19.000;2022-09-09T09:29:16;3.55;;;2.80;;
64716;SDS011;51146;50.274;19.000;2022-09-09T09:31:52;4.78;;;2.78;;
64716;SDS011;51146;50.274;19.000;2022-09-09T09:34:21;4.82;;;2.90;;
64716;SDS011;51146;50.274;19.000;2022-09-09T09:39:27;2.97;;;2.33;;
64716;SDS011;51146;50.274;19.000;2022-09-09T09:42:16;4.03;;;2.10;;
64716;SDS011;51146;50.274;19.000;2022-09-09T09:44:48;4.45;;;2.17;;
64716;SDS011;51146;50.274;19.000;2022-09-09T09:47:19;4.80;;;2.75;;
64716;SDS011;51146;50.274;19.000;2022-09-09T09:49:57;12.65;;;3.50;;
64716;SDS011;51146;50.274;19.000;2022-09-09T09:52:26;12.27;;;2.70;;
64716;SDS011;51146;50.274;19.000;2022-09-09T09:54:56;2.88;;;1.75;;
64716;SDS011;51146;50.274;19.000;2022-09-09T09:57:32;3.10;;;1.90;;
64716;SDS011;51146;50.274;19.000;2022-09-09T10:02:42;2.70;;;2.00;;
64716;SDS011;51146;50.274;19.000;2022-09-09T10:07:42;4.63;;;2.05;;
64716;SDS011;51146;50.274;19.000;2022-09-09T10:10:15;10.70;;;3.15;;
64716;SDS011;51146;50.274;19.000;2022-09-09T10:18:42;10.88;;;2.60;;
64716;SDS011;51146;50.274;19.000;2022-09-09T10:27:20;4.43;;;2.60;;
64716;SDS011;51146;50.274;19.000;2022-09-09T10:35:44;3.58;;;2.05;;
64716;SDS011;51146;50.274;19.000;2022-09-09T10:46:39;6.80;;;2.00;;
64716;SDS011;51146;50.274;19.000;2022-09-09T10:49:52;3.15;;;2.10;;
64716;SDS011;51146;50.274;19.000;2022-09-09T11:02:56;5.60;;;2.75;;
64716;SDS011;51146;50.274;19.000;2022-09-09T11:05:27;5.43;;;2.13;;
64716;SDS011;51146;50.274;19.000;2022-09-09T11:08:21;2.53;;;2.03;;
64716;SDS011;51146;50.274;19.000;2022-09-09T11:13:30;4.15;;;1.70;;
64716;SDS011;51146;50.274;19.000;2022-09-09T11:16:16;1.85;;;1.10;;
64716;SDS011;51146;50.274;19.000;2022-09-09T11:21:52;3.15;;;1.70;;
64716;SDS011;51146;50.274;19.000;2022-09-09T11:24:26;4.00;;;1.63;;
64716;SDS011;51146;50.274;19.000;2022-09-09T11:38:27;2.88;;;1.70;;
64716;SDS011;51146;50.274;19.000;2022-09-09T11:43:39;5.00;;;2.38;;
64716;SDS011;51146;50.274;19.000;2022-09-09T11:46:10;4.75;;;2.20;;
64716;SDS011;51146;50.274;19.000;2022-09-09T11:48:39;3.75;;;1.80;;
64716;SDS011;51146;50.274;19.000;2022-09-09T11:53:48;8.15;;;2.10;;
64716;SDS011;51146;50.274;19.000;2022-09-09T11:58:57;2.53;;;1.52;;
64716;SDS011;51146;50.274;19.000;2022-09-09T12:02:29;2.78;;;1.10;;
64716;SDS011;51146;50.274;19.000;2022-09-09T12:07:05;3.92;;;1.20;;
64716;SDS011;51146;50.274;19.000;2022-09-09T12:10:00;3.50;;;1.63;;
64716;SDS011;51146;50.274;19.000;2022-09-09T12:12:28;3.83;;;1.60;;
64716;SDS011;51146;50.274;19.000;2022-09-09T12:17:41;3.80;;;2.13;;
64716;SDS011;51146;50.274;19.000;2022-09-09T12:20:21;5.85;;;1.70;;
64716;SDS011;51146;50.274;19.000;2022-09-09T12:23:16;1.85;;;1.52;;
64716;SDS011;51146;50.274;19.000;2022-09-09T12:33:45;3.90;;;1.92;;
64716;SDS011;51146;50.274;19.000;2022-09-09T12:36:19;2.38;;;2.05;;
64716;SDS011;51146;50.274;19.000;2022-09-09T12:38:50;2.15;;;1.67;;
64716;SDS011;51146;50.274;19.000;2022-09-09T12:41:19;2.63;;;1.33;;
64716;SDS011;51146;50.274;19.000;2022-09-09T12:43:50;3.90;;;1.40;;
64716;SDS011;51146;50.274;19.000;2022-09-09T12:46:22;2.40;;;1.30;;
64716;SDS011;51146;50.274;19.000;2022-09-09T12:48:59;8.20;;;2.45;;
64716;SDS011;51146;50.274;19.000;2022-09-09T12:53:55;2.25;;;1.27;;
64716;SDS011;51146;50.274;19.000;2022-09-09T12:56:23;1.80;;;1.40;;
64716;SDS011;51146;50.274;19.000;2022-09-09T12:58:55;1.58;;;1.23;;
64716;SDS011;51146;50.274;19.000;2022-09-09T13:01:26;5.90;;;2.20;;
64716;SDS011;51146;50.274;19.000;2022-09-09T13:03:59;3.78;;;1.50;;
64716;SDS011;51146;50.274;19.000;2022-09-09T13:06:30;3.13;;;1.50;;
64716;SDS011;51146;50.274;19.000;2022-09-09T13:08:58;1.73;;;1.38;;
64716;SDS011;51146;50.274;19.000;2022-09-09T13:11:28;2.90;;;1.40;;
64716;SDS011;51146;50.274;19.000;2022-09-09T13:14:02;9.90;;;2.85;;
64716;SDS011;51146;50.274;19.000;2022-09-09T13:16:30;8.55;;;1.80;;
64716;SDS011;51146;50.274;19.000;2022-09-09T13:21:34;3.55;;;1.90;;
64716;SDS011;51146;50.274;19.000;2022-09-09T13:24:04;4.22;;;1.70;;
64716;SDS011;51146;50.274;19.000;2022-09-09T13:26:34;3.08;;;1.67;;
64716;SDS011;51146;50.274;19.000;2022-09-09T13:29:17;4.82;;;1.75;;
64716;SDS011;51146;50.274;19.000;2022-09-09T13:31:45;10.73;;;1.80;;
64716;SDS011;51146;50.274;19.000;2022-09-09T13:37:02;4.78;;;1.90;;
64716;SDS011;51146;50.274;19.000;2022-09-09T13:39:35;3.83;;;1.90;;
64716;SDS011;51146;50.274;19.000;2022-09-09T13:42:03;48.70;;;26.63;;
64716;SDS011;51146;50.274;19.000;2022-09-09T13:44:34;6.95;;;2.80;;
64716;SDS011;51146;50.274;19.000;2022-09-09T13:47:05;7.88;;;2.70;;
64716;SDS011;51146;50.274;19.000;2022-09-09T13:49:45;3.00;;;1.80;;
64716;SDS011;51146;50.274;19.000;2022-09-09T13:52:13;6.40;;;1.60;;
64716;SDS011;51146;50.274;19.000;2022-09-09T13:54:46;4.63;;;1.60;;
64716;SDS011;51146;50.274;19.000;2022-09-09T13:57:21;2.80;;;1.75;;
64716;SDS011;51146;50.274;19.000;2022-09-09T13:59:51;5.65;;;2.38;;
64716;SDS011;51146;50.274;19.000;2022-09-09T14:02:30;4.97;;;2.60;;
64716;SDS011;51146;50.274;19.000;2022-09-09T14:04:57;3.63;;;1.98;;
64716;SDS011;51146;50.274;19.000;2022-09-09T14:07:24;2.97;;;1.60;;
64716;SDS011;51146;50.274;19.000;2022-09-09T14:09:51;1.63;;;1.50;;
64716;SDS011;51146;50.274;19.000;2022-09-09T14:12:18;2.47;;;1.70;;
64716;SDS011;51146;50.274;19.000;2022-09-09T14:14:46;3.10;;;1.70;;
64716;SDS011;51146;50.274;19.000;2022-09-09T14:17:13;5.00;;;2.30;;
64716;SDS011;51146;50.274;19.000;2022-09-09T14:19:40;2.63;;;1.83;;
64716;SDS011;51146;50.274;19.000;2022-09-09T14:22:08;2.78;;;1.50;;
64716;SDS011;51146;50.274;19.000;2022-09-09T14:24:35;2.67;;;1.88;;
64716;SDS011;51146;50.274;19.000;2022-09-09T14:27:02;2.63;;;1.90;;
64716;SDS011;51146;50.274;19.000;2022-09-09T14:29:28;5.85;;;1.95;;
64716;SDS011;51146;50.274;19.000;2022-09-09T14:31:55;3.33;;;1.50;;
64716;SDS011;51146;50.274;19.000;2022-09-09T14:34:22;5.70;;;2.15;;
64716;SDS011;51146;50.274;19.000;2022-09-09T14:36:49;4.45;;;1.90;;
64716;SDS011;51146;50.274;19.000;2022-09-09T14:39:16;2.85;;;1.90;;
64716;SDS011;51146;50.274;19.000;2022-09-09T14:41:43;4.47;;;2.00;;
64716;SDS011;51146;50.274;19.000;2022-09-09T14:44:10;4.30;;;2.05;;
64716;SDS011;51146;50.274;19.000;2022-09-09T14:46:36;5.80;;;1.88;;
64716;SDS011;51146;50.274;19.000;2022-09-09T14:49:03;4.07;;;2.05;;
64716;SDS011;51146;50.274;19.000;2022-09-09T14:51:31;10.93;;;2.93;;
64716;SDS011;51146;50.274;19.000;2022-09-09T14:53:59;7.38;;;2.00;;
64716;SDS011;51146;50.274;19.000;2022-09-09T14:56:27;5.57;;;2.10;;
64716;SDS011;51146;50.274;19.000;2022-09-09T14:58:57;7.38;;;2.40;;
64716;SDS011;51146;50.274;19.000;2022-09-09T15:01:28;4.47;;;2.13;;
64716;SDS011;51146;50.274;19.000;2022-09-09T15:03:58;6.53;;;2.30;;
64716;SDS011;51146;50.274;19.000;2022-09-09T15:06:27;10.10;;;2.38;;
64716;SDS011;51146;50.274;19.000;2022-09-09T15:08:56;12.23;;;3.15;;
64716;SDS011;51146;50.274;19.000;2022-09-09T15:11:27;4.82;;;1.88;;
64716;SDS011;51146;50.274;19.000;2022-09-09T15:13:57;6.80;;;2.30;;
64716;SDS011;51146;50.274;19.000;2022-09-09T15:16:25;4.55;;;1.83;;
64716;SDS011;51146;50.274;19.000;2022-09-09T15:18:55;4.30;;;2.00;;
64716;SDS011;51146;50.274;19.000;2022-09-09T15:23:51;4.95;;;1.90;;
64716;SDS011;51146;50.274;19.000;2022-09-09T15:26:18;5.75;;;2.55;;
64716;SDS011;51146;50.274;19.000;2022-09-09T15:28:45;3.22;;;2.00;;
64716;SDS011;51146;50.274;19.000;2022-09-09T15:31:14;5.28;;;2.53;;
64716;SDS011;51146;50.274;19.000;2022-09-09T15:33:49;11.05;;;2.95;;
64716;SDS011;51146;50.274;19.000;2022-09-09T15:38:43;9.02;;;2.63;;
64716;SDS011;51146;50.274;19.000;2022-09-09T15:41:12;3.90;;;2.30;;
64716;SDS011;51146;50.274;19.000;2022-09-09T15:43:42;5.95;;;2.10;;
64716;SDS011;51146;50.274;19.000;2022-09-09T15:48:47;12.90;;;2.63;;
64716;SDS011;51146;50.274;19.000;2022-09-09T15:51:19;19.10;;;3.47;;
64716;SDS011;51146;50.274;19.000;2022-09-09T15:54:06;15.02;;;2.90;;
64716;SDS011;51146;50.274;19.000;2022-09-09T15:56:33;9.80;;;3.63;;
64716;SDS011;51146;50.274;19.000;2022-09-09T15:59:01;12.65;;;3.50;;
64716;SDS011;51146;50.274;19.000;2022-09-09T16:01:29;7.68;;;2.33;;
64716;SDS011;51146;50.274;19.000;2022-09-09T16:03:57;17.02;;;2.83;;
64716;SDS011;51146;50.274;19.000;2022-09-09T16:06:25;8.90;;;3.30;;
64716;SDS011;51146;50.274;19.000;2022-09-09T16:08:55;7.78;;;3.30;;
64716;SDS011;51146;50.274;19.000;2022-09-09T16:11:25;6.88;;;2.67;;
64716;SDS011;51146;50.274;19.000;2022-09-09T16:16:24;7.60;;;3.00;;
64716;SDS011;51146;50.274;19.000;2022-09-09T16:18:56;14.38;;;3.80;;
64716;SDS011;51146;50.274;19.000;2022-09-09T16:21:26;13.38;;;4.10;;
64716;SDS011;51146;50.274;19.000;2022-09-09T16:23:58;10.88;;;3.75;;
64716;SDS011;51146;50.274;19.000;2022-09-09T16:26:27;10.80;;;3.00;;
64716;SDS011;51146;50.274;19.000;2022-09-09T16:28:54;9.02;;;3.63;;
64716;SDS011;51146;50.274;19.000;2022-09-09T16:31:23;10.65;;;4.72;;
64716;SDS011;51146;50.274;19.000;2022-09-09T16:33:50;7.00;;;2.80;;
64716;SDS011;51146;50.274;19.000;2022-09-09T16:36:21;9.73;;;3.05;;
64716;SDS011;51146;50.274;19.000;2022-09-09T16:38:54;11.68;;;3.08;;
64716;SDS011;51146;50.274;19.000;2022-09-09T16:41:24;5.82;;;2.83;;
64716;SDS011;51146;50.274;19.000;2022-09-09T16:43:56;15.17;;;5.50;;
64716;SDS011;51146;50.274;19.000;2022-09-09T16:46:24;10.40;;;7.22;;
64716;SDS011;51146;50.274;19.000;2022-09-09T16:48:55;30.50;;;6.93;;
64716;SDS011;51146;50.274;19.000;2022-09-09T16:51:25;7.63;;;3.70;;
64716;SDS011;51146;50.274;19.000;2022-09-09T16:54:00;4.57;;;3.75;;
64716;SDS011;51146;50.274;19.000;2022-09-09T16:56:28;7.03;;;4.13;;
64716;SDS011;51146;50.274;19.000;2022-09-09T16:59:03;7.78;;;3.30;;
64716;SDS011;51146;50.274;19.000;2022-09-09T17:01:34;7.03;;;3.00;;
64716;SDS011;51146;50.274;19.000;2022-09-09T17:04:08;9.43;;;3.25;;
64716;SDS011;51146;50.274;19.000;2022-09-09T17:06:49;9.90;;;2.95;;
64716;SDS011;51146;50.274;19.000;2022-09-09T17:09:18;4.10;;;3.17;;
64716;SDS011;51146;50.274;19.000;2022-09-09T17:11:46;4.70;;;3.15;;
64716;SDS011;51146;50.274;19.000;2022-09-09T17:14:15;21.05;;;9.20;;
64716;SDS011;51146;50.274;19.000;2022-09-09T17:16:43;12.05;;;3.10;;
64716;SDS011;51146;50.274;19.000;2022-09-09T17:19:11;6.20;;;5.50;;
64716;SDS011;51146;50.274;19.000;2022-09-09T17:21:39;6.38;;;3.33;;
64716;SDS011;51146;50.274;19.000;2022-09-09T17:24:27;9.02;;;2.88;;
64716;SDS011;51146;50.274;19.000;2022-09-09T17:29:22;6.65;;;2.80;;
64716;SDS011;51146;50.274;19.000;2022-09-09T17:31:48;7.45;;;3.40;;
64716;SDS011;51146;50.274;19.000;2022-09-09T17:34:15;4.20;;;2.70;;